Carson, Washington
Current Conditions -  °F | °C
As of 10:59 AM on Friday 21 Nov 2014 (Local Time) from K4S2 Reporting Station
Haze Haze  
Wind Chill: 34°   Ceiling: 2200
Heat Index: 34°   Visibility: 2mi
Dew Point: 32°   Wind: 0mph
Humidity: 93%   Direction: NA
Pressure: 29.87"   Gusts: NA
Location:  45.72°N, 121.82°W
Report Text: K4S2 211859Z AUTO 00000KT 2SM BR SCT004 BKN022 OVC050 01/00 A2987 RMK AO2 SLP130 T00100000
Loading
Personal Weather Stations






























Interactive Weather Map New forecast layout! Learn more

10-Day Weather Forecast

Advertisements
Track Severe Weather on mobile